Time;durP1;ratioP1;P1;durP2;ratioP2;P2;SDS_P1;SDS_P2;PMS_P1;PMS_P2;Temp;Humidity;BMP_temperature;BMP_pressure;BME280_temperature;BME280_humidity;BME280_pressure;Samples;Min_cycle;Max_cycle;Signal;HPM_P1;HPM_P2
2023/03/16 00:02:07;;;;;;;15.40;10.97;;;0.70;99.90;;;;;;4980972;28;20219;-83
2023/03/16 00:04:36;;;;;;;13.50;11.60;;;0.60;99.90;;;;;;4998299;28;20169;-83
2023/03/16 00:07:03;;;;;;;13.70;10.30;;;0.60;99.90;;;;;;4980985;28;20278;-83
2023/03/16 00:09:29;;;;;;;15.23;10.67;;;0.60;99.90;;;;;;4998743;28;20172;-83
2023/03/16 00:12:02;;;;;;;13.57;10.10;;;0.60;99.90;;;;;;4981689;28;20208;-83
2023/03/16 00:14:29;;;;;;;13.37;10.73;;;0.60;99.90;;;;;;4982266;28;20183;-84
2023/03/16 00:16:55;;;;;;;12.07;10.23;;;0.60;99.90;;;;;;4998552;28;20210;-84
2023/03/16 00:19:21;;;;;;;13.37;10.63;;;0.50;99.90;;;;;;4981856;28;20263;-83
2023/03/16 00:21:51;;;;;;;15.67;9.83;;;0.50;99.90;;;;;;4982026;28;20577;-83
2023/03/16 00:24:20;;;;;;;15.17;10.33;;;0.50;99.90;;;;;;4982113;28;20197;-83
2023/03/16 00:26:47;;;;;;;16.67;10.90;;;0.40;99.90;;;;;;4982590;28;20267;-83
2023/03/16 00:29:13;;;;;;;18.23;11.27;;;0.40;99.90;;;;;;4998402;28;20267;-84
2023/03/16 00:31:43;;;;;;;12.40;10.57;;;0.40;99.90;;;;;;5000785;28;20187;-83
2023/03/16 00:34:10;;;;;;;12.87;10.00;;;0.30;99.90;;;;;;5000206;28;20179;-84
2023/03/16 00:36:37;;;;;;;12.37;10.87;;;0.30;99.90;;;;;;4982349;28;20243;-83
2023/03/16 00:39:04;;;;;;;13.43;11.47;;;0.30;99.90;;;;;;4982472;28;20172;-83
2023/03/16 00:41:30;;;;;;;11.10;9.87;;;0.20;99.90;;;;;;4982471;28;20184;-83
2023/03/16 00:43:55;;;;;;;12.07;10.43;;;0.30;99.90;;;;;;4982891;28;20268;-83
2023/03/16 00:46:25;;;;;;;12.90;9.33;;;0.30;99.90;;;;;;4982801;28;20212;-83
2023/03/16 00:48:52;;;;;;;12.33;10.70;;;0.40;99.90;;;;;;5000293;28;20625;-83
2023/03/16 00:51:18;;;;;;;13.53;10.23;;;0.40;99.90;;;;;;4982097;28;20275;-83
2023/03/16 00:53:45;;;;;;;14.63;10.60;;;0.50;99.90;;;;;;5000058;28;20244;-83
2023/03/16 00:56:12;;;;;;;12.90;10.37;;;0.50;99.90;;;;;;4982240;28;20255;-83
2023/03/16 00:58:41;;;;;;;11.87;10.33;;;0.50;99.90;;;;;;4982211;28;20207;-83
2023/03/16 01:01:18;;;;;;;11.87;10.70;;;0.50;99.90;;;;;;4982539;28;20173;-83
2023/03/16 01:03:44;;;;;;;19.10;10.20;;;0.50;99.90;;;;;;4982697;28;20215;-83
2023/03/16 01:06:16;;;;;;;14.37;10.13;;;0.40;99.90;;;;;;4982555;28;20700;-83
2023/03/16 01:08:42;;;;;;;10.77;9.77;;;0.40;99.90;;;;;;5000112;28;20578;-83
2023/03/16 01:11:15;;;;;;;14.03;9.87;;;0.40;99.90;;;;;;4999902;28;20284;-83
2023/03/16 01:13:41;;;;;;;15.37;10.80;;;0.40;99.90;;;;;;5000481;28;20168;-83
2023/03/16 01:16:08;;;;;;;17.77;10.43;;;0.40;99.90;;;;;;5000896;28;20212;-83
2023/03/16 01:18:34;;;;;;;12.00;10.77;;;0.30;99.90;;;;;;5001948;28;20173;-83
2023/03/16 01:21:01;;;;;;;11.37;10.23;;;0.20;99.90;;;;;;4998674;28;20182;-83
2023/03/16 01:23:30;;;;;;;13.53;10.53;;;0.20;99.90;;;;;;4980521;28;20631;-83
2023/03/16 01:25:56;;;;;;;14.50;10.37;;;0.10;99.90;;;;;;4998287;28;20620;-83
2023/03/16 01:28:25;;;;;;;11.00;9.93;;;0.10;99.90;;;;;;4981493;28;20204;-83
2023/03/16 01:30:56;;;;;;;13.10;10.33;;;0.00;99.90;;;;;;4981267;28;20212;-84
2023/03/16 01:33:24;;;;;;;14.27;10.53;;;-0.10;99.90;;;;;;5006017;28;20208;-83
2023/03/16 01:36:01;;;;;;;11.60;10.23;;;-0.10;99.90;;;;;;4984243;28;20704;-84
2023/03/16 01:38:26;;;;;;;14.67;10.23;;;-0.10;99.90;;;;;;4983375;28;20512;-83
2023/03/16 01:40:54;;;;;;;12.67;9.93;;;-0.10;99.90;;;;;;5001858;28;20179;-83
2023/03/16 01:43:23;;;;;;;11.67;9.50;;;-0.10;99.90;;;;;;4987205;28;20720;-83
2023/03/16 01:46:04;;;;;;;11.50;9.73;;;-0.10;99.90;;;;;;4986769;28;20248;-83
2023/03/16 01:48:54;;;;;;;11.53;10.33;;;-0.10;99.90;;;;;;4986402;28;20177;-83
2023/03/16 01:51:35;;;;;;;14.47;10.17;;;0.00;99.90;;;;;;4986164;28;20544;-83
2023/03/16 01:54:06;;;;;;;11.37;9.33;;;0.00;99.90;;;;;;5003332;28;20203;-83
2023/03/16 01:56:38;;;;;;;16.17;10.10;;;0.10;99.90;;;;;;5002868;28;20286;-83
2023/03/16 01:59:08;;;;;;;14.83;10.00;;;0.10;99.90;;;;;;5002744;28;20686;-83
2023/03/16 02:01:35;;;;;;;11.03;9.93;;;0.10;99.90;;;;;;5003487;28;20161;-83
2023/03/16 02:04:22;;;;;;;10.77;9.57;;;0.10;99.90;;;;;;4985633;28;20179;-83
2023/03/16 02:06:48;;;;;;;10.07;9.07;;;0.20;99.90;;;;;;4985239;28;20254;-83
2023/03/16 02:09:17;;;;;;;10.63;9.63;;;0.30;99.90;;;;;;4984977;28;20243;-83
2023/03/16 02:11:42;;;;;;;9.93;9.00;;;0.40;99.90;;;;;;5002326;28;20173;-83
2023/03/16 02:14:11;;;;;;;9.40;8.53;;;0.50;99.90;;;;;;5002324;28;20180;-83
2023/03/16 02:16:38;;;;;;;9.10;8.20;;;0.70;99.90;;;;;;4983975;28;20208;-84
2023/03/16 02:19:11;;;;;;;10.80;8.37;;;1.10;99.90;;;;;;4984234;28;20180;-83
2023/03/16 02:21:43;;;;;;;8.90;8.10;;;1.20;99.90;;;;;;4984970;28;20161;-83
2023/03/16 02:24:09;;;;;;;9.00;8.20;;;1.30;99.90;;;;;;5002599;28;20184;-83
2023/03/16 02:27:06;;;;;;;11.40;8.50;;;1.50;99.90;;;;;;4984306;28;20239;-83
2023/03/16 02:30:05;;;;;;;9.10;8.20;;;1.60;99.90;;;;;;4983467;28;20196;-83
2023/03/16 02:32:32;;;;;;;9.03;7.80;;;1.70;99.90;;;;;;5001757;28;20165;-83
2023/03/16 02:35:00;;;;;;;9.53;8.53;;;1.80;99.90;;;;;;4983953;28;20204;-83
2023/03/16 02:37:26;;;;;;;9.47;8.57;;;1.90;99.90;;;;;;5001925;28;20252;-83
2023/03/16 02:39:52;;;;;;;11.63;8.77;;;1.90;99.90;;;;;;5001333;28;20176;-83
2023/03/16 02:42:22;;;;;;;9.07;8.17;;;2.00;99.90;;;;;;4984104;28;20177;-83
2023/03/16 02:44:53;;;;;;;8.93;8.10;;;2.00;99.90;;;;;;5004993;28;20172;-84
2023/03/16 02:47:42;;;;;;;9.27;8.40;;;2.00;99.90;;;;;;4988411;28;20228;-84
2023/03/16 02:50:09;;;;;;;11.57;8.43;;;2.00;99.90;;;;;;4986985;28;20165;-84
2023/03/16 02:52:36;;;;;;;10.83;8.87;;;2.00;99.90;;;;;;5003027;28;20199;-84
2023/03/16 02:55:04;;;;;;;10.00;8.37;;;2.00;99.90;;;;;;5003572;28;20220;-84
2023/03/16 02:57:30;;;;;;;8.60;7.80;;;2.00;99.90;;;;;;5002882;28;20279;-84
2023/03/16 02:59:56;;;;;;;9.33;8.00;;;2.00;99.90;;;;;;5002894;28;20192;-84
2023/03/16 03:02:22;;;;;;;9.27;8.37;;;1.90;99.90;;;;;;5002478;28;20225;-83
2023/03/16 03:04:48;;;;;;;13.87;8.50;;;2.00;99.90;;;;;;4984652;28;20181;-84
2023/03/16 03:07:14;;;;;;;9.03;8.00;;;2.00;99.90;;;;;;5002014;28;20234;-83
2023/03/16 03:09:41;;;;;;;8.07;7.30;;;2.00;99.90;;;;;;4984511;28;20180;-83
2023/03/16 03:12:11;;;;;;;9.37;7.63;;;2.10;99.90;;;;;;4983261;28;20181;-83
2023/03/16 03:14:38;;;;;;;8.37;7.60;;;2.20;99.90;;;;;;5001847;28;20157;-83
2023/03/16 03:17:08;;;;;;;8.60;7.80;;;2.20;99.90;;;;;;4999679;28;20251;-83
2023/03/16 03:19:34;;;;;;;8.63;7.70;;;2.10;99.90;;;;;;4997797;28;20179;-82
2023/03/16 03:22:03;;;;;;;9.53;8.03;;;2.10;99.90;;;;;;4998463;28;20177;-82
2023/03/16 03:24:33;;;;;;;9.33;8.27;;;2.10;99.90;;;;;;4998375;28;20660;-82
2023/03/16 03:27:00;;;;;;;9.33;7.70;;;2.10;99.90;;;;;;4998479;28;20200;-83
2023/03/16 03:29:33;;;;;;;8.17;7.43;;;2.10;99.90;;;;;;4980838;28;20188;-83
2023/03/16 03:32:05;;;;;;;8.47;7.63;;;2.10;99.90;;;;;;4980969;28;20173;-83
2023/03/16 03:34:33;;;;;;;8.73;7.87;;;2.10;99.90;;;;;;4981327;28;20184;-83
2023/03/16 03:37:00;;;;;;;9.97;7.93;;;2.20;99.90;;;;;;4981043;28;20212;-84
2023/03/16 03:39:25;;;;;;;10.57;8.17;;;2.20;99.90;;;;;;4999367;28;20172;-83
2023/03/16 03:41:53;;;;;;;8.47;7.70;;;2.20;99.90;;;;;;4998901;28;20649;-83
2023/03/16 03:44:21;;;;;;;8.47;7.70;;;2.20;99.90;;;;;;4981273;28;20176;-83
2023/03/16 03:46:47;;;;;;;8.73;7.23;;;2.20;99.90;;;;;;4998808;28;20201;-83
2023/03/16 03:49:13;;;;;;;8.77;7.87;;;2.30;99.90;;;;;;4999043;28;20183;-83
2023/03/16 03:51:40;;;;;;;8.27;7.53;;;2.30;99.90;;;;;;4981266;28;20267;-83
2023/03/16 03:54:06;;;;;;;7.87;7.27;;;2.40;99.90;;;;;;4998619;28;20183;-83
2023/03/16 03:56:32;;;;;;;7.57;6.97;;;2.40;99.90;;;;;;4981728;28;20216;-83
2023/03/16 03:58:57;;;;;;;7.87;7.27;;;2.50;99.90;;;;;;4980807;28;20214;-83
2023/03/16 04:01:23;;;;;;;9.63;8.03;;;2.50;99.90;;;;;;4999323;28;20200;-83
2023/03/16 04:03:49;;;;;;;8.83;7.90;;;2.50;99.90;;;;;;4998968;28;20179;-83
2023/03/16 04:06:15;;;;;;;7.97;7.27;;;2.60;99.90;;;;;;4981729;28;20200;-84
2023/03/16 04:08:41;;;;;;;8.43;7.63;;;2.60;99.90;;;;;;4999090;28;20212;-83
2023/03/16 04:11:07;;;;;;;8.83;8.00;;;2.60;99.90;;;;;;4982032;28;20187;-83
2023/03/16 04:13:33;;;;;;;8.30;7.57;;;2.60;99.90;;;;;;4981645;28;20180;-83
2023/03/16 04:16:02;;;;;;;8.37;7.67;;;2.60;99.90;;;;;;4981106;28;20212;-83
2023/03/16 04:18:29;;;;;;;8.80;7.80;;;2.60;99.90;;;;;;4981874;28;20172;-83
2023/03/16 04:20:55;;;;;;;10.23;7.60;;;2.70;99.90;;;;;;4982893;28;20212;-84
2023/03/16 04:23:23;;;;;;;7.93;7.23;;;2.70;99.90;;;;;;5000120;28;20192;-83
2023/03/16 04:25:49;;;;;;;8.37;7.67;;;2.70;99.90;;;;;;4999295;28;20220;-83
2023/03/16 04:28:16;;;;;;;8.20;7.33;;;2.70;99.90;;;;;;4981689;28;20271;-83
2023/03/16 04:30:42;;;;;;;8.53;7.20;;;2.70;99.90;;;;;;4981304;28;20699;-83
2023/03/16 04:33:08;;;;;;;8.33;7.13;;;2.80;99.90;;;;;;4999051;28;20177;-83
2023/03/16 04:35:33;;;;;;;8.33;7.40;;;2.80;99.90;;;;;;4982198;28;20200;-84
2023/03/16 04:38:01;;;;;;;8.30;7.57;;;2.80;99.90;;;;;;4980737;28;20251;-83
2023/03/16 04:40:26;;;;;;;8.27;7.30;;;2.90;99.90;;;;;;4996655;28;20649;-83
2023/03/16 04:42:52;;;;;;;7.57;6.93;;;2.80;99.90;;;;;;4996825;28;20180;-83
2023/03/16 04:45:18;;;;;;;8.30;7.33;;;2.90;99.90;;;;;;4978907;28;20185;-83
2023/03/16 04:47:44;;;;;;;7.70;7.10;;;2.80;99.90;;;;;;4979328;28;20208;-83
2023/03/16 04:50:11;;;;;;;8.57;7.13;;;2.90;99.90;;;;;;4979115;28;20270;-83
2023/03/16 04:52:37;;;;;;;8.00;7.30;;;2.90;99.90;;;;;;4997016;28;20172;-83
2023/03/16 04:55:03;;;;;;;8.83;7.50;;;2.90;99.90;;;;;;4997805;28;20180;-83
2023/03/16 04:57:29;;;;;;;7.97;7.10;;;2.90;99.90;;;;;;4997995;28;20215;-83
2023/03/16 04:59:55;;;;;;;7.77;7.10;;;3.00;99.90;;;;;;4998090;28;20180;-83
2023/03/16 05:02:21;;;;;;;7.57;6.97;;;3.00;99.90;;;;;;4980861;28;20195;-83
2023/03/16 05:04:47;;;;;;;8.90;7.57;;;2.90;99.90;;;;;;4980855;28;20212;-83
2023/03/16 05:07:13;;;;;;;8.37;6.70;;;3.00;99.90;;;;;;4980290;28;20200;-83
2023/03/16 05:09:38;;;;;;;7.90;7.13;;;3.00;99.90;;;;;;4998296;28;20183;-83
2023/03/16 05:12:04;;;;;;;8.10;7.30;;;3.00;99.90;;;;;;4980899;28;20634;-83
2023/03/16 05:14:30;;;;;;;8.60;7.80;;;3.10;99.90;;;;;;5000007;28;20221;-83
2023/03/16 05:16:56;;;;;;;7.87;7.20;;;3.10;99.90;;;;;;4984784;28;20211;-83
2023/03/16 05:19:21;;;;;;;7.63;7.03;;;3.10;99.90;;;;;;5002692;28;20637;-84
2023/03/16 05:21:48;;;;;;;7.30;6.80;;;3.10;99.90;;;;;;5003625;28;20191;-83
2023/03/16 05:24:13;;;;;;;9.40;7.20;;;3.10;99.90;;;;;;4985139;28;20197;-83
2023/03/16 05:26:39;;;;;;;7.87;7.23;;;3.10;99.90;;;;;;4985176;28;20210;-83
2023/03/16 05:29:05;;;;;;;8.80;7.90;;;3.10;99.90;;;;;;4985902;28;20251;-83
2023/03/16 05:31:32;;;;;;;8.13;7.43;;;3.20;99.90;;;;;;5002951;28;20192;-83
2023/03/16 05:33:58;;;;;;;8.13;7.53;;;3.30;99.90;;;;;;5002754;28;20177;-83
2023/03/16 05:36:24;;;;;;;8.57;7.70;;;3.20;99.90;;;;;;5002019;28;20642;-83
2023/03/16 05:38:51;;;;;;;8.73;7.83;;;3.30;99.90;;;;;;4984851;28;20183;-83
2023/03/16 05:41:17;;;;;;;8.10;7.50;;;3.30;99.90;;;;;;4985512;28;20184;-83
2023/03/16 05:43:45;;;;;;;9.20;7.57;;;3.40;99.90;;;;;;5002885;28;20683;-83
2023/03/16 05:46:12;;;;;;;8.43;7.63;;;3.30;99.90;;;;;;4985004;28;20204;-83
2023/03/16 05:48:38;;;;;;;7.93;7.23;;;3.40;99.90;;;;;;4985159;28;20187;-83
2023/03/16 05:51:04;;;;;;;8.40;7.60;;;3.30;99.90;;;;;;5004762;28;20180;-83
2023/03/16 05:53:34;;;;;;;7.77;7.13;;;3.30;99.90;;;;;;5002321;28;20180;-82
2023/03/16 05:56:00;;;;;;;8.63;7.83;;;3.40;99.90;;;;;;4985780;28;20251;-82
2023/03/16 05:58:27;;;;;;;7.87;7.27;;;3.40;99.90;;;;;;4984799;28;20582;-83
2023/03/16 06:00:54;;;;;;;9.07;7.67;;;3.40;99.90;;;;;;4984164;28;20180;-83
2023/03/16 06:03:21;;;;;;;7.80;7.20;;;3.40;99.90;;;;;;4985485;28;20184;-83
2023/03/16 06:05:47;;;;;;;9.43;8.53;;;3.40;99.90;;;;;;5002397;28;20176;-83
2023/03/16 06:08:14;;;;;;;10.83;8.07;;;3.40;99.90;;;;;;5002211;28;20188;-82
2023/03/16 06:10:40;;;;;;;8.57;7.77;;;3.50;99.90;;;;;;4984128;28;20252;-82
2023/03/16 06:13:05;;;;;;;8.30;7.43;;;3.50;99.90;;;;;;5002364;28;20219;-82
2023/03/16 06:15:31;;;;;;;8.40;7.60;;;3.50;99.90;;;;;;4984719;28;20204;-83
2023/03/16 06:17:57;;;;;;;10.77;7.80;;;3.50;99.90;;;;;;4986389;28;20205;-83
2023/03/16 06:20:23;;;;;;;9.23;8.27;;;3.50;99.90;;;;;;5005396;28;20172;-83
2023/03/16 06:22:49;;;;;;;8.27;7.57;;;3.60;99.90;;;;;;5003576;28;20678;-83
2023/03/16 06:25:15;;;;;;;8.57;7.67;;;3.60;99.90;;;;;;4985649;28;20287;-83
2023/03/16 06:27:41;;;;;;;8.80;7.90;;;3.50;99.90;;;;;;4983651;28;20692;-82
2023/03/16 06:30:10;;;;;;;8.40;7.60;;;3.60;99.90;;;;;;4985444;28;20195;-82
2023/03/16 06:32:36;;;;;;;8.83;7.93;;;3.60;99.90;;;;;;4984184;28;20181;-82
2023/03/16 06:35:04;;;;;;;10.03;8.40;;;3.60;99.90;;;;;;4983895;28;20185;-82
2023/03/16 06:37:30;;;;;;;9.20;8.33;;;3.70;99.90;;;;;;4983499;28;20717;-82
2023/03/16 06:39:56;;;;;;;10.73;8.10;;;3.70;99.90;;;;;;4983617;28;20188;-82
2023/03/16 06:42:22;;;;;;;13.03;7.40;;;3.80;99.90;;;;;;5001378;28;20196;-82
2023/03/16 06:44:48;;;;;;;9.93;8.90;;;3.70;99.90;;;;;;5001380;28;20236;-82
2023/03/16 06:47:14;;;;;;;9.17;8.13;;;3.70;99.90;;;;;;4981257;28;20347;-82
2023/03/16 06:49:39;;;;;;;8.57;7.77;;;3.80;99.90;;;;;;4997738;28;20176;-82
2023/03/16 06:52:05;;;;;;;9.50;7.80;;;3.90;99.90;;;;;;4997898;28;20226;-82
2023/03/16 06:54:33;;;;;;;10.57;8.30;;;3.90;99.90;;;;;;4980378;28;20194;-82
2023/03/16 06:57:00;;;;;;;9.30;8.40;;;3.90;99.90;;;;;;4980816;28;20212;-83
2023/03/16 06:59:26;;;;;;;8.80;8.10;;;4.00;99.90;;;;;;5002080;28;20268;-83
2023/03/16 07:01:51;;;;;;;9.00;8.10;;;4.10;99.90;;;;;;4984460;28;20204;-83
2023/03/16 07:04:17;;;;;;;9.77;7.70;;;4.10;99.90;;;;;;4984341;28;20176;-83
2023/03/16 07:06:43;;;;;;;8.43;7.73;;;4.20;99.90;;;;;;5000502;28;20200;-83
2023/03/16 07:09:08;;;;;;;8.47;7.70;;;4.20;99.90;;;;;;5001302;28;20177;-83
2023/03/16 07:11:34;;;;;;;8.97;8.07;;;4.30;99.90;;;;;;5001427;28;20176;-83
2023/03/16 07:14:00;;;;;;;8.90;8.00;;;4.40;99.90;;;;;;5000899;28;20184;-83
2023/03/16 07:16:27;;;;;;;9.33;8.43;;;4.50;99.90;;;;;;4982848;28;20279;-83
2023/03/16 07:18:52;;;;;;;8.50;7.60;;;4.50;99.90;;;;;;4982982;28;20177;-82
2023/03/16 07:21:19;;;;;;;8.50;7.60;;;4.60;99.90;;;;;;5000642;28;20164;-82
2023/03/16 07:23:44;;;;;;;8.53;7.77;;;4.60;99.90;;;;;;4982440;28;20664;-82
2023/03/16 07:26:10;;;;;;;8.83;7.97;;;4.70;99.90;;;;;;5000232;28;20197;-83
2023/03/16 07:28:38;;;;;;;11.20;8.27;;;4.70;99.90;;;;;;4999746;28;20267;-83
2023/03/16 07:31:05;;;;;;;8.30;7.50;;;4.80;99.90;;;;;;4999856;28;20311;-83
2023/03/16 07:33:32;;;;;;;8.37;7.67;;;4.80;99.90;;;;;;4982033;28;20227;-82
2023/03/16 07:35:58;;;;;;;8.80;8.00;;;4.80;99.90;;;;;;4999189;28;20212;-82
2023/03/16 07:38:24;;;;;;;9.50;7.67;;;4.80;99.90;;;;;;4999281;28;20197;-82
2023/03/16 07:40:53;;;;;;;8.33;7.50;;;4.80;99.90;;;;;;4999326;28;20231;-82
2023/03/16 07:43:19;;;;;;;8.60;7.80;;;4.90;99.90;;;;;;4982030;28;20275;-82
2023/03/16 07:45:49;;;;;;;7.33;6.80;;;4.80;99.90;;;;;;4981598;28;20207;-82
2023/03/16 07:48:15;;;;;;;8.07;7.23;;;4.90;99.90;;;;;;5000125;28;20185;-82
2023/03/16 07:50:41;;;;;;;8.27;7.10;;;4.80;99.90;;;;;;4982935;28;20211;-82
2023/03/16 07:53:07;;;;;;;8.00;7.30;;;4.90;99.90;;;;;;4999688;28;20173;-82
2023/03/16 07:55:35;;;;;;;9.70;7.33;;;4.90;99.90;;;;;;4978828;28;20200;-82
2023/03/16 07:58:03;;;;;;;8.53;7.73;;;4.90;99.90;;;;;;4995972;28;20607;-82
2023/03/16 08:00:29;;;;;;;7.67;7.00;;;5.00;99.90;;;;;;4979990;28;20570;-82
2023/03/16 08:02:56;;;;;;;8.10;7.33;;;5.00;99.90;;;;;;4979399;28;20177;-82
2023/03/16 08:05:22;;;;;;;10.20;7.30;;;5.10;99.90;;;;;;4996931;28;20652;-82
2023/03/16 08:07:47;;;;;;;8.13;7.20;;;5.10;99.90;;;;;;4978904;28;20211;-82
2023/03/16 08:10:13;;;;;;;8.43;7.63;;;5.20;99.90;;;;;;4981037;28;20247;-82
2023/03/16 08:12:40;;;;;;;7.90;6.90;;;5.30;99.90;;;;;;4980697;28;20207;-82
2023/03/16 08:15:06;;;;;;;7.43;6.83;;;5.40;99.90;;;;;;4998749;28;20215;-82
2023/03/16 08:17:33;;;;;;;7.43;6.77;;;5.50;99.90;;;;;;4981453;28;20207;-82
2023/03/16 08:19:59;;;;;;;7.40;6.80;;;5.60;99.90;;;;;;4981460;28;20184;-83
2023/03/16 08:22:25;;;;;;;7.33;6.70;;;5.80;99.90;;;;;;4981292;28;20612;-83
2023/03/16 08:24:51;;;;;;;7.10;6.60;;;5.90;99.90;;;;;;4986124;28;20181;-83
2023/03/16 08:27:18;;;;;;;6.90;6.30;;;6.00;99.90;;;;;;4982338;28;20266;-83
2023/03/16 08:29:44;;;;;;;8.13;6.57;;;6.10;99.90;;;;;;5000816;28;20173;-83
2023/03/16 08:32:11;;;;;;;6.57;6.07;;;6.20;99.90;;;;;;4982871;28;20231;-83
2023/03/16 08:34:38;;;;;;;7.27;6.60;;;6.20;99.90;;;;;;5002965;28;20182;-83
2023/03/16 08:37:05;;;;;;;7.03;6.20;;;6.30;99.90;;;;;;4983715;28;20212;-83
2023/03/16 08:39:32;;;;;;;6.77;6.27;;;6.30;99.90;;;;;;5000957;28;20316;-83
2023/03/16 08:41:58;;;;;;;7.00;6.33;;;6.30;99.90;;;;;;5003018;28;20586;-83
2023/03/16 08:44:24;;;;;;;6.90;6.27;;;6.40;99.90;;;;;;4998593;28;20176;-83
2023/03/16 08:46:51;;;;;;;7.20;6.60;;;6.40;99.90;;;;;;4983144;28;20243;-83
2023/03/16 08:49:19;;;;;;;6.53;6.03;;;6.30;99.90;;;;;;4998449;28;20267;-83
2023/03/16 08:51:45;;;;;;;6.40;5.90;;;6.30;99.90;;;;;;5004105;28;20255;-83
2023/03/16 08:54:11;;;;;;;6.80;6.13;;;6.40;99.90;;;;;;4987226;28;20364;-83
2023/03/16 08:56:37;;;;;;;6.53;6.03;;;6.50;99.90;;;;;;4988481;28;20267;-83
2023/03/16 08:59:02;;;;;;;6.30;5.80;;;6.50;99.90;;;;;;4986347;28;20190;-83
2023/03/16 09:01:28;;;;;;;6.67;6.17;;;6.40;99.90;;;;;;4987475;28;20218;-83
2023/03/16 09:03:54;;;;;;;7.30;6.27;;;6.30;99.90;;;;;;5005542;28;20185;-83
2023/03/16 09:06:21;;;;;;;6.63;5.97;;;6.30;99.90;;;;;;4986668;28;20224;-83
2023/03/16 09:08:47;;;;;;;6.67;5.90;;;6.40;99.90;;;;;;4993788;28;20188;-83
2023/03/16 09:11:15;;;;;;;6.50;6.00;;;6.50;99.90;;;;;;5010866;28;20211;-81
2023/03/16 09:13:42;;;;;;;6.70;6.20;;;6.60;99.90;;;;;;4993941;28;20558;-82
2023/03/16 09:16:09;;;;;;;6.50;6.00;;;6.70;99.90;;;;;;4993024;28;20282;-82
2023/03/16 09:18:35;;;;;;;6.87;6.27;;;6.80;99.90;;;;;;4992777;28;20199;-82
2023/03/16 09:21:03;;;;;;;6.43;5.93;;;6.80;99.90;;;;;;5010717;28;20196;-82
2023/03/16 09:23:31;;;;;;;6.43;5.80;;;6.80;99.90;;;;;;5009986;28;20276;-82
2023/03/16 09:25:59;;;;;;;6.20;5.73;;;6.70;99.90;;;;;;4989392;28;20186;-82
2023/03/16 09:28:29;;;;;;;7.00;6.40;;;6.60;99.90;;;;;;5012230;28;20177;-82
2023/03/16 09:30:56;;;;;;;6.97;6.37;;;6.50;99.90;;;;;;5010420;28;20157;-82
2023/03/16 09:33:24;;;;;;;6.93;5.97;;;6.40;99.90;;;;;;4987646;28;20188;-82
2023/03/16 09:35:51;;;;;;;6.90;6.33;;;6.40;99.90;;;;;;5008204;28;20200;-83
2023/03/16 09:38:20;;;;;;;6.40;5.90;;;6.30;99.90;;;;;;4994367;28;20164;-82
2023/03/16 09:40:54;;;;;;;6.90;6.30;;;6.30;99.90;;;;;;4993156;28;20164;-82
2023/03/16 09:43:23;;;;;;;7.87;6.10;;;6.30;99.90;;;;;;5003732;28;20199;-79
2023/03/16 09:45:58;;;;;;;6.50;5.97;;;6.30;99.90;;;;;;4984770;28;20215;-79
2023/03/16 09:48:28;;;;;;;7.10;6.37;;;6.30;99.90;;;;;;4988067;28;20184;-82
2023/03/16 09:50:57;;;;;;;7.67;6.23;;;6.30;99.90;;;;;;4989998;28;20189;-82
2023/03/16 09:53:30;;;;;;;6.47;5.87;;;6.40;99.90;;;;;;5006877;28;20173;-83
2023/03/16 09:56:04;;;;;;;6.83;6.23;;;6.30;99.90;;;;;;5006978;28;20196;-82
2023/03/16 09:58:31;;;;;;;6.50;6.00;;;6.30;99.90;;;;;;4989271;28;20185;-83
2023/03/16 10:01:12;;;;;;;7.13;6.00;;;6.30;99.90;;;;;;5005122;28;20173;-82
2023/03/16 10:04:08;;;;;;;7.07;5.93;;;6.40;99.90;;;;;;4985795;28;20172;-82
2023/03/16 10:06:42;;;;;;;8.97;6.00;;;6.50;99.90;;;;;;5003492;28;20227;-82
2023/03/16 10:09:25;;;;;;;6.13;5.73;;;6.70;99.90;;;;;;4988295;28;20240;-82
2023/03/16 10:11:57;;;;;;;6.87;6.17;;;6.90;99.90;;;;;;4990318;28;20173;-82
2023/03/16 10:14:36;;;;;;;6.20;5.70;;;7.00;99.90;;;;;;5001593;28;20215;-82
2023/03/16 10:17:29;;;;;;;6.07;5.57;;;7.30;99.90;;;;;;4982215;28;20682;-82
2023/03/16 10:20:10;;;;;;;7.33;5.63;;;7.40;99.90;;;;;;4981518;28;20182;-83
2023/03/16 10:22:42;;;;;;;7.23;5.63;;;7.40;99.90;;;;;;4982403;28;20176;-83
2023/03/16 10:25:47;;;;;;;7.00;6.40;;;7.40;99.90;;;;;;4999797;28;20168;-82
2023/03/16 10:28:17;;;;;;;6.50;5.90;;;7.30;99.90;;;;;;4982976;28;20191;-81
2023/03/16 10:30:43;;;;;;;6.20;5.70;;;7.30;99.90;;;;;;4986112;28;20700;-82
2023/03/16 10:33:18;;;;;;;6.93;6.27;;;7.40;99.90;;;;;;4985271;28;20276;-82
2023/03/16 10:36:01;;;;;;;6.00;5.43;;;7.40;99.90;;;;;;5003230;28;20556;-82
2023/03/16 10:38:37;;;;;;;6.30;5.77;;;7.50;99.90;;;;;;5001212;28;20160;-82
2023/03/16 10:41:19;;;;;;;6.63;5.90;;;7.70;99.90;;;;;;5004608;28;20160;-82
2023/03/16 10:43:48;;;;;;;6.40;5.80;;;7.90;99.90;;;;;;4984720;28;20183;-81
2023/03/16 10:46:14;;;;;;;6.40;5.83;;;8.00;99.90;;;;;;5004497;28;20212;-82
2023/03/16 10:48:40;;;;;;;5.80;5.30;;;8.00;99.90;;;;;;4985982;28;20618;-82
2023/03/16 10:51:14;;;;;;;6.20;5.53;;;8.20;99.90;;;;;;5012044;28;20176;-82
2023/03/16 10:53:43;;;;;;;6.43;5.90;;;8.20;99.90;;;;;;4991248;28;20708;-82
2023/03/16 10:56:19;;;;;;;5.93;5.53;;;7.90;99.90;;;;;;5005970;28;20215;-82
2023/03/16 10:58:45;;;;;;;7.53;6.23;;;7.70;99.90;;;;;;4988073;28;20567;-82
2023/03/16 11:01:25;;;;;;;7.20;6.07;;;7.80;99.90;;;;;;4988233;28;20203;-82
2023/03/16 11:03:54;;;;;;;6.73;5.50;;;7.80;99.90;;;;;;4986404;28;20248;-82
2023/03/16 11:06:29;;;;;;;6.30;5.60;;;7.90;99.90;;;;;;4998853;28;20607;-81
2023/03/16 11:09:21;;;;;;;6.27;5.67;;;8.10;99.90;;;;;;4980891;28;20602;-82
2023/03/16 11:11:49;;;;;;;6.00;5.50;;;8.20;99.90;;;;;;4998402;28;20193;-82
2023/03/16 11:14:18;;;;;;;6.13;5.60;;;8.30;99.90;;;;;;5000882;28;20180;-82
2023/03/16 11:17:09;;;;;;;5.30;4.90;;;8.30;99.90;;;;;;4983523;28;20220;-82
2023/03/16 11:20:11;;;;;;;5.50;5.00;;;8.30;99.90;;;;;;4999584;28;20275;-82
2023/03/16 11:22:38;;;;;;;6.23;5.27;;;8.30;99.90;;;;;;4998491;28;20222;-83
2023/03/16 11:25:28;;;;;;;6.20;5.70;;;8.40;99.90;;;;;;4984529;28;20181;-82
2023/03/16 11:28:02;;;;;;;5.23;4.83;;;8.50;99.90;;;;;;4985000;28;20199;-82
2023/03/16 11:30:40;;;;;;;5.67;5.17;;;8.40;99.90;;;;;;4999618;28;20521;-82
2023/03/16 11:33:12;;;;;;;5.20;4.87;;;8.40;99.90;;;;;;4982088;28;20177;-82
2023/03/16 11:35:46;;;;;;;5.63;5.13;;;8.40;99.90;;;;;;4985580;28;20210;-82
2023/03/16 11:38:51;;;;;;;6.03;5.20;;;8.40;99.90;;;;;;4999461;28;20161;-82
2023/03/16 11:41:33;;;;;;;5.60;5.20;;;8.40;99.90;;;;;;4984777;28;20268;-82
2023/03/16 11:44:20;;;;;;;5.53;5.03;;;8.30;99.90;;;;;;4983417;28;20232;-82
2023/03/16 11:47:11;;;;;;;5.60;5.10;;;8.30;99.90;;;;;;5002387;28;20200;-82
2023/03/16 11:50:13;;;;;;;5.50;5.10;;;8.30;99.90;;;;;;5000658;28;20183;-82
2023/03/16 11:53:07;;;;;;;5.47;4.97;;;8.30;99.90;;;;;;4981774;28;20168;-82
2023/03/16 11:55:48;;;;;;;5.13;4.73;;;8.40;99.90;;;;;;5001340;28;20188;-82
2023/03/16 11:58:21;;;;;;;5.63;5.17;;;8.50;99.90;;;;;;4986130;28;20716;-83
2023/03/16 12:01:31;;;;;;;8.17;4.90;;;8.60;99.90;;;;;;4999654;28;20579;-82
2023/03/16 12:04:24;;;;;;;5.60;5.00;;;8.80;99.90;;;;;;4968606;28;20184;-82
2023/03/16 12:07:17;;;;;;;5.63;4.80;;;8.80;99.90;;;;;;4998568;28;20192;-82
2023/03/16 12:10:04;;;;;;;4.90;4.60;;;9.00;99.90;;;;;;4980628;28;20222;-82
2023/03/16 12:12:49;;;;;;;5.17;4.60;;;9.20;99.90;;;;;;4980488;28;20267;-82
2023/03/16 12:15:37;;;;;;;6.80;4.90;;;9.30;99.90;;;;;;4980049;28;20176;-83
2023/03/16 12:18:40;;;;;;;4.87;4.47;;;9.50;99.90;;;;;;4980049;28;20242;-82
2023/03/16 12:21:32;;;;;;;7.30;4.57;;;9.70;99.90;;;;;;4998299;28;20705;-82
2023/03/16 12:24:09;;;;;;;4.90;4.50;;;9.80;99.90;;;;;;5000558;28;20260;-82
2023/03/16 12:26:41;;;;;;;5.17;4.53;;;9.80;99.90;;;;;;4982957;28;20200;-82
2023/03/16 12:29:13;;;;;;;5.30;4.53;;;9.80;99.90;;;;;;5000373;28;20165;-82
2023/03/16 12:31:54;;;;;;;5.03;4.30;;;10.00;99.90;;;;;;4980903;28;20173;-82
2023/03/16 12:34:30;;;;;;;4.83;4.40;;;10.10;99.90;;;;;;4981753;28;20244;-82
2023/03/16 12:37:26;;;;;;;4.95;4.55;;;10.40;99.90;;;;;;4980813;28;20800;-82
2023/03/16 12:40:21;;;;;;;6.88;4.70;;;11.00;99.90;;;;;;4981364;28;20180;-82
2023/03/16 12:42:58;;;;;;;5.30;4.80;;;11.50;99.90;;;;;;4981460;28;20222;-82
2023/03/16 12:45:56;;;;;;;5.70;4.28;;;11.50;99.90;;;;;;4990378;28;20176;-83
2023/03/16 12:48:26;;;;;;;4.57;4.13;;;11.50;99.90;;;;;;4977951;28;20239;-82
2023/03/16 12:50:55;;;;;;;6.13;4.05;;;11.30;99.90;;;;;;5000761;28;20632;-82
2023/03/16 12:53:42;;;;;;;5.17;4.20;;;11.10;99.90;;;;;;5002295;28;20173;-83
2023/03/16 12:56:18;;;;;;;5.40;4.37;;;10.80;99.90;;;;;;4998448;28;20208;-80
2023/03/16 12:58:49;;;;;;;4.70;4.40;;;10.80;99.90;;;;;;4980139;28;20202;-79
2023/03/16 13:01:24;;;;;;;4.57;4.17;;;10.50;99.90;;;;;;4997675;28;20168;-79
2023/03/16 13:03:59;;;;;;;5.13;4.63;;;10.50;99.90;;;;;;4996934;28;20168;-79
2023/03/16 13:06:32;;;;;;;4.97;4.30;;;10.50;99.90;;;;;;4996628;28;20251;-79
2023/03/16 13:08:59;;;;;;;4.38;4.07;;;10.40;99.90;;;;;;4996823;28;20152;-79
2023/03/16 13:11:27;;;;;;;4.90;4.50;;;10.30;99.90;;;;;;4996921;28;20168;-79